createdAt,value
2022-12-25T00:01:40.959Z,92793.34
2022-12-25T00:04:10.942Z,92795.53
2022-12-25T00:06:40.964Z,92788.84
2022-12-25T00:09:12.304Z,92794.56
2022-12-25T00:11:42.279Z,92799.84
2022-12-25T00:14:12.327Z,92798.66
2022-12-25T00:16:42.424Z,92804.28
2022-12-25T00:19:12.461Z,92804.34
2022-12-25T00:21:42.300Z,92804.50
2022-12-25T00:24:13.860Z,92809.31
2022-12-25T00:26:43.742Z,92810.88
2022-12-25T00:29:15.949Z,92813.88
2022-12-25T00:31:45.919Z,92808.41
2022-12-25T00:34:15.853Z,92816.00
2022-12-25T00:36:45.764Z,92813.41
2022-12-25T00:39:17.182Z,92806.88
2022-12-25T00:42:04.557Z,92806.88
2022-12-25T00:44:34.753Z,92812.63
2022-12-25T00:47:04.940Z,92821.69
2022-12-25T00:50:54.672Z,92814.59
2022-12-25T00:53:25.451Z,92811.03
2022-12-25T00:55:56.523Z,92825.47
2022-12-25T00:58:27.940Z,92827.59
2022-12-25T01:00:58.129Z,92826.53
2022-12-25T01:03:28.612Z,92815.69
2022-12-25T01:06:02.175Z,92813.28
2022-12-25T01:08:34.885Z,92810.66
2022-12-25T01:11:06.304Z,92815.03
2022-12-25T01:13:39.634Z,92825.69
2022-12-25T01:16:11.154Z,92828.72
2022-12-25T01:18:41.242Z,92818.25
2022-12-25T01:21:16.465Z,92836.03
2022-12-25T01:23:46.859Z,92836.16
2022-12-25T01:26:18.264Z,92836.41
2022-12-25T01:28:48.920Z,92835.47
2022-12-25T01:31:22.011Z,92834.88
2022-12-25T01:33:52.580Z,92841.09
2022-12-25T01:36:27.574Z,92838.91
2022-12-25T01:38:57.702Z,92840.09
2022-12-25T01:41:28.540Z,92835.31
2022-12-25T01:44:06.527Z,92826.41
2022-12-25T01:46:37.236Z,92819.66
2022-12-25T01:49:10.391Z,92821.91
2022-12-25T01:51:45.468Z,92819.75
2022-12-25T01:54:19.320Z,92828.84
2022-12-25T01:56:50.730Z,92827.44
2022-12-25T01:59:24.443Z,92828.84
2022-12-25T02:01:54.557Z,92831.00
2022-12-25T02:04:39.270Z,92830.47
2022-12-25T02:07:15.200Z,92835.88
2022-12-25T02:09:45.938Z,92830.31
2022-12-25T02:12:23.259Z,92834.22
2022-12-25T02:15:01.118Z,92833.72
2022-12-25T02:17:42.499Z,92829.22
2022-12-25T02:20:42.860Z,92840.41
2022-12-25T02:24:02.793Z,92841.34
2022-12-25T02:27:03.292Z,92838.78
2022-12-25T02:29:44.251Z,92829.63
2022-12-25T02:32:21.222Z,92839.50
2022-12-25T02:34:57.639Z,92840.81
2022-12-25T02:37:33.562Z,92842.81
2022-12-25T02:40:10.805Z,92851.56
2022-12-25T02:43:05.362Z,92844.03
2022-12-25T02:46:03.016Z,92842.63
2022-12-25T02:48:54.921Z,92847.19
2022-12-25T02:51:46.606Z,92845.75
2022-12-25T02:54:40.441Z,92844.09
2022-12-25T02:57:31.291Z,92854.47
2022-12-25T03:00:20.308Z,92845.94
2022-12-25T03:03:10.377Z,92852.00
2022-12-25T03:05:59.527Z,92855.53
2022-12-25T03:08:36.172Z,92843.84
2022-12-25T03:11:26.385Z,92850.19
2022-12-25T03:14:20.280Z,92864.97
2022-12-25T03:16:53.919Z,92864.91
2022-12-25T03:19:46.888Z,92863.25
2022-12-25T03:22:38.406Z,92872.69
2022-12-25T03:25:27.018Z,92866.03
2022-12-25T03:27:58.537Z,92864.47
2022-12-25T03:31:11.455Z,92860.31
2022-12-25T03:34:34.725Z,92861.16
2022-12-25T03:37:45.100Z,92868.31
2022-12-25T03:40:48.332Z,92872.03
2022-12-25T03:43:46.901Z,92859.16
2022-12-25T03:46:37.700Z,92861.16
2022-12-25T03:52:11.286Z,92859.59
2022-12-25T03:55:03.348Z,92860.69
2022-12-25T03:57:54.361Z,92862.47
2022-12-25T04:00:43.855Z,92859.22
2022-12-25T04:03:31.162Z,92859.22
2022-12-25T04:06:18.084Z,92864.19
2022-12-25T04:09:06.844Z,92878.78
2022-12-25T04:11:58.790Z,92887.06
2022-12-25T04:14:49.364Z,92891.56
2022-12-25T04:17:36.607Z,92895.78
2022-12-25T04:20:25.264Z,92897.50
2022-12-25T04:23:12.222Z,92908.38
2022-12-25T04:26:00.999Z,92908.25
2022-12-25T04:28:48.357Z,92915.31
2022-12-25T04:31:35.327Z,92923.31
2022-12-25T04:34:22.285Z,92920.41
2022-12-25T04:36:52.182Z,92918.06
2022-12-25T04:39:22.106Z,92909.34
2022-12-25T04:41:53.492Z,92914.59
2022-12-25T04:44:23.341Z,92915.31
2022-12-25T04:46:53.474Z,92927.31
2022-12-25T04:49:23.678Z,92918.97
2022-12-25T04:51:53.681Z,92913.91
2022-12-25T04:54:23.709Z,92931.06
2022-12-25T04:56:55.143Z,92933.63
2022-12-25T04:59:25.226Z,92935.47
2022-12-25T05:01:55.308Z,92946.53
2022-12-25T05:04:25.336Z,92950.19
2022-12-25T05:06:55.295Z,92962.72
2022-12-25T05:09:26.674Z,92972.09
2022-12-25T05:11:58.023Z,92961.09
2022-12-25T05:14:27.914Z,92972.56
2022-12-25T05:16:57.683Z,92978.31
2022-12-25T05:19:27.866Z,92975.88
2022-12-25T05:21:58.131Z,92975.81
2022-12-25T05:24:29.865Z,92984.34
2022-12-25T05:27:01.311Z,92969.94
2022-12-25T05:29:31.363Z,92984.75
2022-12-25T05:32:01.356Z,92985.06
2022-12-25T05:34:31.551Z,92991.63
2022-12-25T05:37:01.505Z,92990.88
2022-12-25T05:39:31.504Z,92998.59
2022-12-25T05:42:03.002Z,93002.88
2022-12-25T05:44:32.926Z,92998.41
2022-12-25T05:47:02.888Z,93001.75
2022-12-25T05:49:32.796Z,93008.72
2022-12-25T05:52:02.783Z,93011.34
2022-12-25T05:54:32.681Z,93021.69
2022-12-25T05:57:04.708Z,93016.47
2022-12-25T05:59:36.093Z,93020.56
2022-12-25T06:02:06.406Z,93026.56
2022-12-25T06:04:36.430Z,93035.09
2022-12-25T06:07:06.308Z,93036.84
2022-12-25T06:09:36.261Z,93043.66
2022-12-25T06:12:07.822Z,93062.38
2022-12-25T06:14:38.248Z,93057.31
2022-12-25T06:17:08.145Z,93055.56
2022-12-25T06:19:38.045Z,93058.78
2022-12-25T06:22:08.044Z,93062.13
2022-12-25T06:24:38.123Z,93070.69
2022-12-25T06:27:09.595Z,93051.81
2022-12-25T06:29:39.558Z,93065.28
2022-12-25T06:32:09.424Z,93064.91
2022-12-25T06:34:39.515Z,93063.59
2022-12-25T06:37:09.704Z,93059.38
2022-12-25T06:39:39.693Z,93059.88
2022-12-25T06:42:11.168Z,93061.44
2022-12-25T06:44:41.642Z,93064.72
2022-12-25T06:47:11.703Z,93064.34
2022-12-25T06:51:51.219Z,93066.38
2022-12-25T06:54:21.201Z,93077.56
2022-12-25T06:56:51.555Z,93067.88
2022-12-25T06:59:21.599Z,93071.03
2022-12-25T07:01:55.633Z,93074.88
2022-12-25T07:04:32.360Z,93081.94
2022-12-25T07:07:08.686Z,93078.72
2022-12-25T07:09:40.250Z,93087.06
2022-12-25T07:12:17.504Z,93095.63
2022-12-25T07:14:50.405Z,93101.50
2022-12-25T07:17:21.638Z,93101.38
2022-12-25T07:19:52.261Z,93100.47
2022-12-25T07:22:23.672Z,93106.38
2022-12-25T07:24:53.531Z,93109.88
2022-12-25T07:27:23.461Z,93110.22
2022-12-25T07:29:53.341Z,93115.50
2022-12-25T07:32:23.245Z,93106.34
2022-12-25T07:34:53.183Z,93121.50
2022-12-25T07:37:24.782Z,93116.38
2022-12-25T07:39:54.783Z,93105.63
2022-12-25T07:42:25.406Z,93114.44
2022-12-25T07:44:55.787Z,93118.16
2022-12-25T07:47:25.662Z,93109.09
2022-12-25T07:49:55.644Z,93113.72
2022-12-25T07:52:27.084Z,93119.00
2022-12-25T07:54:56.983Z,93121.09
2022-12-25T07:57:27.066Z,93128.28
2022-12-25T07:59:56.906Z,93141.53
2022-12-25T08:02:29.294Z,93148.47
2022-12-25T08:05:00.024Z,93148.47
2022-12-25T08:07:31.405Z,93163.88
2022-12-25T08:10:01.541Z,93157.63
2022-12-25T08:12:31.531Z,93161.38
2022-12-25T08:15:01.547Z,93162.81
2022-12-25T08:17:31.501Z,93170.28
2022-12-25T08:20:01.503Z,93164.88
2022-12-25T08:22:32.847Z,93158.09
2022-12-25T08:25:02.740Z,93161.00
2022-12-25T08:27:32.604Z,93166.47
2022-12-25T08:30:02.657Z,93168.59
2022-12-25T08:32:35.748Z,93170.09
2022-12-25T08:35:06.200Z,93174.16
2022-12-25T08:37:37.702Z,93173.13
2022-12-25T08:40:09.792Z,93176.50
2022-12-25T08:42:39.809Z,93175.56
2022-12-25T08:45:11.846Z,93180.00
2022-12-25T08:47:41.885Z,93180.56
2022-12-25T08:50:12.504Z,93180.31
2022-12-25T08:52:44.077Z,93177.31
2022-12-25T08:55:13.962Z,93177.78
2022-12-25T08:57:44.244Z,93172.13
2022-12-25T09:00:15.609Z,93172.28
2022-12-25T09:02:45.648Z,93175.06
2022-12-25T09:05:15.684Z,93167.25
2022-12-25T09:07:47.034Z,93163.84
2022-12-25T09:10:16.985Z,93161.16
2022-12-25T09:12:46.964Z,93175.72
2022-12-25T09:15:17.084Z,93167.81
2022-12-25T09:17:46.943Z,93163.38
2022-12-25T09:20:16.915Z,93164.88
2022-12-25T09:22:48.423Z,93166.53
2022-12-25T09:25:18.754Z,93170.91
2022-12-25T09:27:48.722Z,93173.50
2022-12-25T09:30:18.829Z,93164.78
2022-12-25T09:32:48.671Z,93162.81
2022-12-25T09:35:19.423Z,93166.44
2022-12-25T09:37:50.800Z,93162.28
2022-12-25T09:40:23.665Z,93167.84
2022-12-25T09:42:57.591Z,93166.91
2022-12-25T09:45:33.219Z,93170.06
2022-12-25T09:48:03.182Z,93172.41
2022-12-25T09:51:57.094Z,93175.00
2022-12-25T09:54:41.702Z,93171.19
2022-12-25T09:57:15.104Z,93159.19
2022-12-25T09:59:47.882Z,93158.91
2022-12-25T10:02:41.091Z,93169.25
2022-12-25T10:05:55.045Z,93170.16
2022-12-25T10:08:56.668Z,93170.06
2022-12-25T10:11:45.064Z,93164.13
2022-12-25T10:14:27.904Z,93159.56
2022-12-25T10:17:17.546Z,93170.50
2022-12-25T10:19:55.111Z,93167.63
2022-12-25T10:22:33.943Z,93169.31
2022-12-25T10:25:07.810Z,93178.69
2022-12-25T10:27:43.133Z,93179.44
2022-12-25T10:30:19.074Z,93174.97
2022-12-25T10:32:50.314Z,93176.63
2022-12-25T10:35:24.004Z,93177.50
2022-12-25T10:38:01.449Z,93176.34
2022-12-25T10:40:40.984Z,93176.16
2022-12-25T10:43:15.203Z,93174.03
2022-12-25T10:45:50.095Z,93174.97
2022-12-25T10:48:26.746Z,93173.28
2022-12-25T10:50:56.956Z,93177.56
2022-12-25T10:53:28.855Z,93176.69
2022-12-25T10:56:02.922Z,93167.88
2022-12-25T10:58:33.989Z,93164.97
2022-12-25T11:01:08.890Z,93168.22
2022-12-25T11:03:42.541Z,93168.06
2022-12-25T11:06:26.225Z,93172.31
2022-12-25T11:09:00.309Z,93169.34
2022-12-25T11:11:32.899Z,93174.56
2022-12-25T11:14:05.214Z,93173.81
2022-12-25T11:16:38.835Z,93174.69
2022-12-25T11:19:31.126Z,93179.28
2022-12-25T11:22:04.240Z,93185.22
2022-12-25T11:24:36.574Z,93183.75
2022-12-25T11:27:08.804Z,93180.50
2022-12-25T11:29:45.491Z,93180.41
2022-12-25T11:32:22.642Z,93180.41
2022-12-25T11:34:53.781Z,93174.56
2022-12-25T11:37:33.082Z,93175.69
2022-12-25T11:40:03.479Z,93179.22
2022-12-25T11:42:40.330Z,93181.53
2022-12-25T11:45:17.452Z,93183.31
2022-12-25T11:47:53.471Z,93179.22
2022-12-25T11:50:31.103Z,93178.41
2022-12-25T11:53:05.630Z,93179.22
2022-12-25T11:55:42.163Z,93180.50
2022-12-25T11:58:22.617Z,93179.00
2022-12-25T12:00:58.001Z,93170.19
2022-12-25T12:03:33.110Z,93172.25
2022-12-25T12:06:08.863Z,93170.88
2022-12-25T12:08:39.390Z,93181.72
2022-12-25T12:11:20.952Z,93183.78
2022-12-25T12:14:13.366Z,93176.09
2022-12-25T12:16:43.652Z,93186.56
2022-12-25T12:19:20.701Z,93178.88
2022-12-25T12:21:52.424Z,93189.34
2022-12-25T12:24:25.634Z,93189.56
2022-12-25T12:27:08.043Z,93193.09
2022-12-25T12:29:45.303Z,93200.06
2022-12-25T12:32:39.833Z,93190.69
2022-12-25T12:35:21.124Z,93191.81
2022-12-25T12:37:55.230Z,93197.13
2022-12-25T12:40:34.826Z,93197.19
2022-12-25T12:43:05.562Z,93206.03
2022-12-25T12:45:39.466Z,93200.06
2022-12-25T12:51:51.616Z,93199.41
2022-12-25T12:54:25.970Z,93210.88
2022-12-25T12:57:01.680Z,93215.03
2022-12-25T12:59:41.442Z,93215.13
2022-12-25T13:03:00.296Z,93213.75
2022-12-25T13:05:41.029Z,93215.25
2022-12-25T13:08:34.709Z,93216.91
2022-12-25T13:11:18.361Z,93221.63
2022-12-25T13:13:50.356Z,93226.16
2022-12-25T13:16:29.517Z,93215.88
2022-12-25T13:19:00.267Z,93233.16
2022-12-25T13:21:32.641Z,93230.81
2022-12-25T13:24:09.234Z,93227.03
2022-12-25T13:26:40.962Z,93233.91
2022-12-25T13:29:25.823Z,93243.47
2022-12-25T13:31:56.482Z,93241.53
2022-12-25T13:34:32.963Z,93242.66
2022-12-25T13:37:08.270Z,93244.75
2022-12-25T13:39:48.653Z,93247.47
2022-12-25T13:42:21.164Z,93254.50
2022-12-25T13:44:55.389Z,93249.31
2022-12-25T13:47:31.868Z,93250.06
2022-12-25T13:50:14.801Z,93254.72
2022-12-25T13:52:44.200Z,93255.53
2022-12-25T13:55:19.083Z,93261.47
2022-12-25T13:57:54.706Z,93255.72
2022-12-25T14:00:31.432Z,93259.53
2022-12-25T14:03:02.353Z,93258.59
2022-12-25T14:05:42.079Z,93265.81
2022-12-25T14:08:23.124Z,93264.50
2022-12-25T14:10:56.672Z,93257.81
2022-12-25T14:13:29.742Z,93263.84
2022-12-25T14:16:00.594Z,93258.25
2022-12-25T14:18:31.336Z,93263.81
2022-12-25T14:21:04.634Z,93265.00
2022-12-25T14:23:45.068Z,93265.34
2022-12-25T14:26:21.762Z,93270.91
2022-12-25T14:28:53.636Z,93270.13
2022-12-25T14:31:26.557Z,93271.56
2022-12-25T14:33:57.523Z,93263.09
2022-12-25T14:36:28.074Z,93257.34
2022-12-25T14:39:02.834Z,93256.56
2022-12-25T14:41:39.867Z,93263.81
2022-12-25T14:44:33.920Z,93262.19
2022-12-25T14:47:16.162Z,93259.59
2022-12-25T14:49:46.759Z,93262.66
2022-12-25T14:52:23.711Z,93264.59
2022-12-25T14:54:58.440Z,93264.66
2022-12-25T14:57:34.752Z,93269.09
2022-12-25T15:00:22.088Z,93280.00
2022-12-25T15:02:56.428Z,93273.16
2022-12-25T15:05:33.879Z,93278.16
2022-12-25T15:08:22.298Z,93293.06
2022-12-25T15:11:02.132Z,93296.16
2022-12-25T15:13:34.722Z,93295.63
2022-12-25T15:16:12.662Z,93294.88
2022-12-25T15:18:46.984Z,93291.19
2022-12-25T15:21:19.535Z,93294.69
2022-12-25T15:23:49.751Z,93291.81
2022-12-25T15:26:19.662Z,93298.66
2022-12-25T15:28:51.310Z,93298.66
2022-12-25T15:31:25.442Z,93300.72
2022-12-25T15:33:56.832Z,93300.88
2022-12-25T15:36:27.921Z,93305.47
2022-12-25T15:38:58.124Z,93305.41
2022-12-25T15:41:49.044Z,93310.75
2022-12-25T15:44:20.467Z,93312.09
2022-12-25T15:46:50.728Z,93305.72
2022-12-25T15:51:51.354Z,93313.28
2022-12-25T15:54:21.585Z,93315.34
2022-12-25T15:56:54.104Z,93317.25
2022-12-25T15:59:25.691Z,93315.50
2022-12-25T16:01:57.917Z,93318.09
2022-12-25T16:04:31.538Z,93321.97
2022-12-25T16:07:03.212Z,93317.53
2022-12-25T16:09:32.985Z,93312.91
2022-12-25T16:12:02.760Z,93328.78
2022-12-25T16:14:32.692Z,93336.91
2022-12-25T16:17:02.638Z,93331.34
2022-12-25T16:19:32.819Z,93345.16
2022-12-25T16:22:04.243Z,93341.31
2022-12-25T16:24:34.084Z,93349.59
2022-12-25T16:27:03.891Z,93345.16
2022-12-25T16:29:34.029Z,93347.22
2022-12-25T16:32:04.231Z,93350.44
2022-12-25T16:34:34.135Z,93355.91
2022-12-25T16:37:08.723Z,93351.22
2022-12-25T16:39:38.629Z,93342.81
2022-12-25T16:42:09.462Z,93345.91
2022-12-25T16:44:39.780Z,93345.53
2022-12-25T16:47:09.832Z,93351.84
2022-12-25T16:49:39.938Z,93368.31
2022-12-25T16:52:11.365Z,93367.78
2022-12-25T16:54:41.362Z,93364.88
2022-12-25T16:57:11.242Z,93368.78
2022-12-25T16:59:41.935Z,93369.75
2022-12-25T17:02:17.496Z,93363.97
2022-12-25T17:04:48.850Z,93361.75
2022-12-25T17:07:20.638Z,93373.81
2022-12-25T17:09:51.552Z,93379.28
2022-12-25T17:12:21.382Z,93374.88
2022-12-25T17:14:51.383Z,93380.50
2022-12-25T17:17:21.241Z,93386.69
2022-12-25T17:19:51.245Z,93392.84
2022-12-25T17:22:22.870Z,93386.31
2022-12-25T17:24:52.764Z,93397.66
2022-12-25T17:27:22.611Z,93389.81
2022-12-25T17:29:52.605Z,93390.00
2022-12-25T17:32:22.598Z,93391.00
2022-12-25T17:34:52.492Z,93391.19
2022-12-25T17:37:25.290Z,93397.34
2022-12-25T17:39:54.623Z,93384.72
2022-12-25T17:42:24.542Z,93395.25
2022-12-25T17:44:54.420Z,93395.19
2022-12-25T17:47:24.521Z,93390.91
2022-12-25T17:49:54.546Z,93387.94
2022-12-25T17:52:25.846Z,93392.03
2022-12-25T17:54:57.344Z,93396.25
2022-12-25T17:57:27.702Z,93399.66
2022-12-25T17:59:57.626Z,93404.44
2022-12-25T18:02:28.901Z,93404.22
2022-12-25T18:04:59.622Z,93406.16
2022-12-25T18:07:31.086Z,93415.22
2022-12-25T18:10:00.972Z,93417.75
2022-12-25T18:12:30.734Z,93427.78
2022-12-25T18:15:00.608Z,93422.63
2022-12-25T18:17:30.703Z,93429.38
2022-12-25T18:20:00.586Z,93432.22
2022-12-25T18:22:31.993Z,93423.16
2022-12-25T18:25:01.857Z,93422.66
2022-12-25T18:27:31.739Z,93428.03
2022-12-25T18:30:01.641Z,93433.41
2022-12-25T18:32:31.642Z,93432.84
2022-12-25T18:35:01.509Z,93441.75
2022-12-25T18:37:39.428Z,93436.53
2022-12-25T18:40:11.762Z,93445.69
2022-12-25T18:42:41.671Z,93446.66
2022-12-25T18:45:14.816Z,93441.06
2022-12-25T18:47:45.045Z,93441.63
2022-12-25T18:51:51.903Z,93445.72
2022-12-25T18:54:21.773Z,93447.81
2022-12-25T18:56:53.563Z,93454.34
2022-12-25T18:59:23.747Z,93449.66
2022-12-25T19:01:53.768Z,93444.84
2022-12-25T19:04:23.918Z,93445.28
2022-12-25T19:06:55.445Z,93451.63
2022-12-25T19:09:25.405Z,93454.63
2022-12-25T19:11:57.404Z,93449.16
2022-12-25T19:14:28.627Z,93457.03
2022-12-25T19:16:59.330Z,93446.25
2022-12-25T19:19:29.363Z,93447.84
2022-12-25T19:22:01.083Z,93444.50
2022-12-25T19:24:31.024Z,93438.50
2022-12-25T19:27:01.013Z,93438.69
2022-12-25T19:29:30.984Z,93435.94
2022-12-25T19:32:01.221Z,93447.47
2022-12-25T19:34:31.162Z,93446.25
2022-12-25T19:37:02.635Z,93447.94
2022-12-25T19:39:32.467Z,93453.84
2022-12-25T19:42:02.305Z,93452.91
2022-12-25T19:44:32.283Z,93449.44
2022-12-25T19:47:02.048Z,93451.09
2022-12-25T19:49:31.923Z,93455.44
2022-12-25T19:52:03.471Z,93458.47
2022-12-25T19:54:33.546Z,93461.28
2022-12-25T19:57:03.545Z,93466.47
2022-12-25T19:59:33.501Z,93466.63
2022-12-25T20:02:03.461Z,93463.66
2022-12-25T20:04:33.604Z,93450.22
2022-12-25T20:07:05.004Z,93452.84
2022-12-25T20:09:35.003Z,93455.41
2022-12-25T20:12:05.129Z,93451.34
2022-12-25T20:14:35.071Z,93458.78
2022-12-25T20:17:04.956Z,93457.09
2022-12-25T20:19:36.050Z,93459.38
2022-12-25T20:22:07.443Z,93458.56
2022-12-25T20:24:37.506Z,93469.06
2022-12-25T20:27:07.442Z,93466.75
2022-12-25T20:29:37.393Z,93467.75
2022-12-25T20:32:07.994Z,93470.44
2022-12-25T20:34:38.334Z,93465.47
2022-12-25T20:37:09.711Z,93476.63
2022-12-25T20:39:40.165Z,93468.34
2022-12-25T20:42:10.562Z,93471.06
2022-12-25T20:44:40.584Z,93478.75
2022-12-25T20:47:10.425Z,93479.53
2022-12-25T20:49:40.315Z,93474.41
2022-12-25T20:52:12.409Z,93477.81
2022-12-25T20:54:42.684Z,93490.78
2022-12-25T20:57:12.642Z,93488.41
2022-12-25T20:59:44.779Z,93491.75
2022-12-25T21:02:34.252Z,93489.94
2022-12-25T21:05:04.931Z,93487.44
2022-12-25T21:07:36.722Z,93491.03
2022-12-25T21:10:08.020Z,93488.53
2022-12-25T21:12:38.042Z,93490.16
2022-12-25T21:15:15.111Z,93497.25
2022-12-25T21:17:45.771Z,93493.88
2022-12-25T21:20:15.782Z,93494.78
2022-12-25T21:22:47.208Z,93498.06
2022-12-25T21:25:17.312Z,93498.00
2022-12-25T21:27:47.112Z,93494.13
2022-12-25T21:30:17.270Z,93498.66
2022-12-25T21:33:04.113Z,93499.59
2022-12-25T21:35:35.039Z,93496.88
2022-12-25T21:38:06.970Z,93505.53
2022-12-25T21:40:38.471Z,93502.91
2022-12-25T21:43:09.345Z,93506.38
2022-12-25T21:45:39.157Z,93503.50
2022-12-25T21:48:09.339Z,93508.56
2022-12-25T21:52:08.907Z,93500.19
2022-12-25T21:54:38.889Z,93502.00
2022-12-25T21:57:09.167Z,93504.53
2022-12-25T21:59:39.223Z,93508.69
2022-12-25T22:02:11.799Z,93502.00
2022-12-25T22:04:42.636Z,93506.38
2022-12-25T22:07:18.316Z,93502.28
2022-12-25T22:09:49.539Z,93503.22
2022-12-25T22:12:39.082Z,93493.91
2022-12-25T22:15:11.887Z,93492.25
2022-12-25T22:18:00.129Z,93499.81
2022-12-25T22:20:35.016Z,93502.47
2022-12-25T22:23:07.470Z,93496.66
2022-12-25T22:25:37.330Z,93496.66
2022-12-25T22:28:08.876Z,93504.53
2022-12-25T22:30:38.822Z,93496.97
2022-12-25T22:33:08.816Z,93497.03
2022-12-25T22:35:38.813Z,93497.91
2022-12-25T22:38:10.488Z,93493.56
2022-12-25T22:40:40.710Z,93493.63
2022-12-25T22:43:10.860Z,93488.44
2022-12-25T22:45:40.882Z,93491.13
2022-12-25T22:48:10.759Z,93493.63
2022-12-25T22:50:40.923Z,93502.16
2022-12-25T22:53:12.513Z,93504.91
2022-12-25T22:55:47.062Z,93494.56
2022-12-25T22:58:17.405Z,93495.47
2022-12-25T23:00:47.623Z,93492.84
2022-12-25T23:03:17.581Z,93489.50
2022-12-25T23:05:47.631Z,93492.00
2022-12-25T23:08:19.258Z,93494.50
2022-12-25T23:10:49.071Z,93498.09
2022-12-25T23:13:36.743Z,93493.03
2022-12-25T23:16:07.602Z,93489.50
2022-12-25T23:18:54.582Z,93496.38
2022-12-25T23:21:41.981Z,93495.50
2022-12-25T23:24:31.403Z,93491.16
2022-12-25T23:27:01.536Z,93493.19
2022-12-25T23:29:36.283Z,93491.56
2022-12-25T23:32:08.707Z,93495.06
2022-12-25T23:34:40.833Z,93499.38
2022-12-25T23:37:11.740Z,93496.88
2022-12-25T23:39:43.124Z,93497.88
2022-12-25T23:42:13.055Z,93502.22
2022-12-25T23:44:43.022Z,93496.22
2022-12-25T23:47:13.307Z,93503.06
2022-12-25T23:49:43.250Z,93505.56
2022-12-25T23:52:14.371Z,93520.91
2022-12-25T23:54:45.641Z,93522.75
2022-12-25T23:57:15.632Z,93522.06
2022-12-25T23:59:45.563Z,93527.31
